Time;durP1;ratioP1;P1;durP2;ratioP2;P2;SDS_P1;SDS_P2;PMS_P1;PMS_P2;Temp;Humidity;BMP_temperature;BMP_pressure;BME280_temperature;BME280_humidity;BME280_pressure;Samples;Min_cycle;Max_cycle;Signal;HPM_P1;HPM_P2
2022/11/18 00:01:20;;;;;;;4.20;1.00;;;10.00;99.90;;;;;;5077819;28;20024;-84
2022/11/18 00:03:46;;;;;;;2.83;0.75;;;9.90;99.90;;;;;;5085011;28;20030;-82
2022/11/18 00:06:15;;;;;;;1.52;0.50;;;10.00;99.90;;;;;;5099330;28;20508;-83
2022/11/18 00:08:41;;;;;;;1.92;0.60;;;9.90;99.90;;;;;;5106864;28;20610;-83
2022/11/18 00:11:11;;;;;;;1.77;0.43;;;9.90;99.90;;;;;;5082263;28;20059;-83
2022/11/18 00:16:23;;;;;;;2.70;0.70;;;9.90;99.90;;;;;;5107180;28;20066;-83
2022/11/18 00:18:48;;;;;;;2.42;0.60;;;9.90;99.90;;;;;;5088427;28;20024;-83
2022/11/18 00:21:14;;;;;;;1.92;0.63;;;9.90;99.90;;;;;;5096521;28;20385;-78
2022/11/18 00:23:40;;;;;;;3.20;0.73;;;9.90;99.90;;;;;;5112674;28;20512;-79
2022/11/18 00:26:12;;;;;;;3.45;0.63;;;9.90;99.90;;;;;;5099226;28;20081;-78
2022/11/18 00:28:38;;;;;;;5.35;0.82;;;9.90;99.90;;;;;;5080363;28;20480;-78
2022/11/18 00:31:10;;;;;;;3.00;0.80;;;9.90;99.90;;;;;;5095373;28;20110;-78
2022/11/18 00:33:36;;;;;;;2.92;0.68;;;9.80;99.90;;;;;;5087484;28;20077;-84
2022/11/18 00:36:03;;;;;;;2.00;0.50;;;9.90;99.90;;;;;;5088402;28;20024;-86
2022/11/18 00:38:29;;;;;;;2.83;0.70;;;9.90;99.90;;;;;;5076579;28;20017;-86
2022/11/18 00:41:03;;;;;;;2.55;0.60;;;9.90;99.90;;;;;;5078739;28;20055;-85
2022/11/18 00:43:29;;;;;;;1.50;0.40;;;9.90;99.90;;;;;;5081443;28;20166;-82
2022/11/18 00:45:54;;;;;;;2.47;0.60;;;9.80;99.90;;;;;;5092562;28;20027;-81
2022/11/18 00:48:21;;;;;;;1.25;0.38;;;9.90;99.90;;;;;;5100672;28;20496;-80
2022/11/18 00:50:57;;;;;;;3.13;0.68;;;9.90;99.90;;;;;;5087409;28;20048;-82
2022/11/18 00:53:25;;;;;;;6.20;1.00;;;9.80;99.90;;;;;;5097427;28;20024;-82
2022/11/18 00:55:52;;;;;;;2.00;0.90;;;9.90;99.90;;;;;;5106477;28;20117;-82
2022/11/18 00:58:18;;;;;;;4.38;0.85;;;9.80;99.90;;;;;;5082052;28;20028;-81
2022/11/18 01:00:47;;;;;;;3.13;0.57;;;9.80;99.90;;;;;;5080431;28;20024;-81
2022/11/18 01:03:13;;;;;;;8.05;1.10;;;9.80;99.90;;;;;;5110330;28;20024;-81
2022/11/18 01:05:39;;;;;;;1.73;0.55;;;9.80;99.90;;;;;;5096070;28;20033;-81
2022/11/18 01:08:06;;;;;;;3.70;0.70;;;9.80;99.90;;;;;;5106720;28;20072;-82
2022/11/18 01:10:32;;;;;;;1.67;0.50;;;9.80;99.90;;;;;;5087341;28;20393;-80
2022/11/18 01:15:44;;;;;;;2.67;0.55;;;9.80;99.90;;;;;;5095533;28;20035;-81
2022/11/18 01:18:10;;;;;;;3.00;0.70;;;9.80;99.90;;;;;;5081660;28;20034;-79
2022/11/18 01:20:36;;;;;;;1.17;0.35;;;9.80;99.90;;;;;;5118613;28;20480;-79
2022/11/18 01:23:02;;;;;;;0.70;0.30;;;9.80;99.90;;;;;;5104305;28;20050;-86
2022/11/18 01:25:28;;;;;;;2.60;0.30;;;9.90;99.90;;;;;;5083261;28;20059;-86
2022/11/18 01:27:54;;;;;;;0.90;0.63;;;9.90;99.90;;;;;;5089483;28;20032;-87
2022/11/18 01:30:21;;;;;;;1.38;0.50;;;9.90;99.90;;;;;;5095746;28;20031;-85
2022/11/18 01:32:47;;;;;;;1.58;0.40;;;9.90;99.90;;;;;;5082367;28;20119;-84
2022/11/18 01:35:13;;;;;;;2.53;0.30;;;9.90;99.90;;;;;;5082867;28;20063;-82
2022/11/18 01:37:39;;;;;;;2.92;0.68;;;9.90;99.90;;;;;;5120625;28;20015;-81
2022/11/18 01:40:07;;;;;;;1.15;0.38;;;9.80;99.90;;;;;;5092510;28;20024;-81
2022/11/18 01:42:33;;;;;;;1.50;0.40;;;9.80;99.90;;;;;;5081917;28;20020;-81
2022/11/18 01:45:13;;;;;;;0.82;0.30;;;9.80;99.90;;;;;;5090662;28;20031;-80
2022/11/18 01:47:47;;;;;;;0.70;0.30;;;9.80;99.90;;;;;;5073226;28;20039;-80
2022/11/18 01:50:15;;;;;;;1.73;0.35;;;9.70;99.90;;;;;;5082996;28;20051;-81
2022/11/18 01:52:41;;;;;;;2.17;0.70;;;9.70;99.90;;;;;;5081502;28;20028;-81
2022/11/18 01:55:17;;;;;;;2.35;0.45;;;9.70;99.90;;;;;;5081071;28;20035;-81
2022/11/18 01:57:46;;;;;;;2.92;0.47;;;9.70;99.90;;;;;;5107279;28;20031;-80
2022/11/18 02:00:12;;;;;;;3.28;0.80;;;9.60;99.90;;;;;;5080874;28;20048;-81
2022/11/18 02:02:38;;;;;;;1.98;0.77;;;9.50;99.90;;;;;;5081332;28;20039;-81
2022/11/18 02:05:06;;;;;;;1.23;0.43;;;9.60;99.90;;;;;;5099975;28;20032;-81
2022/11/18 02:07:36;;;;;;;2.45;0.63;;;9.50;99.90;;;;;;5108129;28;20049;-81
2022/11/18 02:10:04;;;;;;;0.73;0.30;;;9.50;99.90;;;;;;5101972;28;20024;-81
2022/11/18 02:12:30;;;;;;;1.58;0.50;;;9.50;99.90;;;;;;5098632;28;20053;-78
2022/11/18 02:14:56;;;;;;;3.00;0.68;;;9.50;99.90;;;;;;5079978;28;20028;-78
2022/11/18 02:17:32;;;;;;;3.03;0.80;;;9.50;99.90;;;;;;5080665;28;20023;-78
2022/11/18 02:20:30;;;;;;;1.25;0.50;;;9.50;99.90;;;;;;5103094;28;20537;-78
2022/11/18 02:23:14;;;;;;;0.90;0.38;;;9.50;99.90;;;;;;5113680;28;20396;-78
2022/11/18 02:25:51;;;;;;;1.83;0.63;;;9.50;99.90;;;;;;5102084;28;20035;-81
2022/11/18 02:28:40;;;;;;;3.25;0.60;;;9.50;99.90;;;;;;5086592;28;20019;-81
2022/11/18 02:31:28;;;;;;;2.28;0.50;;;9.50;99.90;;;;;;5070528;28;20065;-79
2022/11/18 02:34:33;;;;;;;0.93;0.32;;;9.40;99.90;;;;;;5104407;28;20050;-76
2022/11/18 02:37:06;;;;;;;1.80;0.40;;;9.50;99.90;;;;;;5054239;28;20071;-82
2022/11/18 02:39:42;;;;;;;0.60;0.30;;;9.50;99.90;;;;;;5079827;28;20023;-82
2022/11/18 02:42:11;;;;;;;2.33;0.40;;;9.50;99.90;;;;;;5080264;28;20028;-83
2022/11/18 02:44:39;;;;;;;1.77;0.47;;;9.50;99.90;;;;;;5068899;28;20107;-84
2022/11/18 02:47:09;;;;;;;1.08;0.40;;;9.50;99.90;;;;;;5078794;28;20024;-81
2022/11/18 02:49:40;;;;;;;2.97;0.65;;;9.50;99.90;;;;;;5078501;28;20044;-81
2022/11/18 02:52:08;;;;;;;1.27;0.47;;;9.50;99.90;;;;;;5093490;28;20074;-83
2022/11/18 02:54:38;;;;;;;3.92;0.70;;;9.50;99.90;;;;;;5069701;28;20084;-78
2022/11/18 02:57:04;;;;;;;2.50;0.68;;;9.50;99.90;;;;;;5108549;28;20030;-79
2022/11/18 02:59:30;;;;;;;0.95;0.40;;;9.40;99.90;;;;;;5098064;28;20441;-79
2022/11/18 03:01:56;;;;;;;1.58;0.43;;;9.40;99.90;;;;;;5082701;28;20027;-78
2022/11/18 03:04:23;;;;;;;0.90;0.22;;;9.40;99.90;;;;;;5102347;28;20059;-78
2022/11/18 03:07:00;;;;;;;1.95;0.50;;;9.40;99.90;;;;;;5101491;28;20028;-81
2022/11/18 03:09:28;;;;;;;2.45;0.50;;;9.40;99.90;;;;;;5100810;28;20027;-80
2022/11/18 03:12:03;;;;;;;0.95;0.40;;;9.40;99.90;;;;;;5078997;28;20104;-80
2022/11/18 03:14:37;;;;;;;0.55;0.20;;;9.40;99.90;;;;;;5079631;28;20031;-80
2022/11/18 03:17:15;;;;;;;1.20;0.35;;;9.40;99.90;;;;;;5096806;28;20020;-80
2022/11/18 03:19:50;;;;;;;0.52;0.20;;;9.40;99.90;;;;;;5101358;28;20028;-81
2022/11/18 03:22:41;;;;;;;0.93;0.20;;;9.40;99.90;;;;;;5106731;28;20055;-81
2022/11/18 03:25:07;;;;;;;1.30;0.40;;;9.40;99.90;;;;;;5100565;28;20031;-82
2022/11/18 03:27:52;;;;;;;1.42;0.40;;;9.40;99.90;;;;;;5078537;28;20119;-82
2022/11/18 03:30:20;;;;;;;2.60;0.30;;;9.40;99.90;;;;;;5082557;28;20059;-81
2022/11/18 03:32:56;;;;;;;4.28;0.60;;;9.40;99.90;;;;;;5079430;28;20024;-79
2022/11/18 03:35:25;;;;;;;1.67;0.30;;;9.40;99.90;;;;;;5098068;28;20053;-79
2022/11/18 03:37:57;;;;;;;1.20;0.32;;;9.30;99.90;;;;;;5102865;28;20024;-79
2022/11/18 03:40:28;;;;;;;2.15;0.40;;;9.30;99.90;;;;;;5097257;28;20107;-80
2022/11/18 03:43:24;;;;;;;2.75;0.63;;;9.30;99.90;;;;;;5102643;28;20020;-80
2022/11/18 03:46:10;;;;;;;2.15;0.68;;;9.30;99.90;;;;;;5061674;28;20123;-80
2022/11/18 03:48:46;;;;;;;1.65;0.47;;;9.30;99.90;;;;;;5100667;28;20419;-80
2022/11/18 03:51:17;;;;;;;2.38;0.68;;;9.30;99.90;;;;;;5100808;28;20039;-80
2022/11/18 03:53:52;;;;;;;1.25;0.30;;;9.30;99.90;;;;;;5096475;28;20552;-79
2022/11/18 03:56:23;;;;;;;3.00;0.60;;;9.30;99.90;;;;;;5091397;28;20055;-80
2022/11/18 03:59:18;;;;;;;1.02;0.30;;;9.30;99.90;;;;;;5078960;28;20020;-79
2022/11/18 04:01:50;;;;;;;3.40;0.50;;;9.30;99.90;;;;;;5074533;28;20088;-83
2022/11/18 04:04:16;;;;;;;5.60;0.98;;;9.30;99.90;;;;;;5097227;28;20504;-84
2022/11/18 04:06:54;;;;;;;1.60;0.40;;;9.30;99.90;;;;;;5079285;28;20036;-84
2022/11/18 04:09:25;;;;;;;3.05;0.85;;;9.40;99.90;;;;;;5096746;28;20039;-80
2022/11/18 04:12:01;;;;;;;4.75;0.82;;;9.40;99.90;;;;;;5078869;28;20032;-83
2022/11/18 04:14:29;;;;;;;2.58;0.45;;;9.40;99.90;;;;;;5105980;28;20032;-78
2022/11/18 04:16:55;;;;;;;1.42;0.40;;;9.30;99.90;;;;;;5081776;28;20104;-79
2022/11/18 04:19:20;;;;;;;2.65;0.60;;;9.40;99.90;;;;;;5104527;28;20476;-78
2022/11/18 04:21:47;;;;;;;2.67;0.50;;;9.40;99.90;;;;;;5083351;28;20040;-78
2022/11/18 04:24:14;;;;;;;1.83;0.57;;;9.40;99.90;;;;;;5100757;28;20055;-78
2022/11/18 04:26:39;;;;;;;3.28;0.50;;;9.40;99.90;;;;;;5106579;28;20020;-78
2022/11/18 04:29:05;;;;;;;5.07;0.70;;;9.40;99.90;;;;;;5106552;28;20091;-78
2022/11/18 04:31:31;;;;;;;2.75;0.60;;;9.40;99.90;;;;;;5109722;28;20370;-78
2022/11/18 04:33:57;;;;;;;3.67;0.65;;;9.40;99.90;;;;;;5103698;28;20040;-78
2022/11/18 04:36:22;;;;;;;3.45;0.63;;;9.40;99.90;;;;;;5082389;28;20023;-77
2022/11/18 04:38:48;;;;;;;2.38;0.50;;;9.40;99.90;;;;;;5109458;28;20078;-78
2022/11/18 04:41:14;;;;;;;3.67;0.68;;;9.40;99.90;;;;;;5116394;28;20020;-78
2022/11/18 04:43:40;;;;;;;1.60;0.43;;;9.40;99.90;;;;;;5106335;28;20027;-78
2022/11/18 04:46:06;;;;;;;2.00;0.60;;;9.40;99.90;;;;;;5103907;28;20480;-78
2022/11/18 04:48:31;;;;;;;2.10;0.65;;;9.30;99.90;;;;;;5097559;28;20031;-78
2022/11/18 04:51:01;;;;;;;5.05;0.70;;;9.40;99.90;;;;;;5099416;28;20102;-78
2022/11/18 04:53:26;;;;;;;3.33;0.70;;;9.40;99.90;;;;;;5101617;28;20492;-78
2022/11/18 04:55:52;;;;;;;1.48;0.70;;;9.30;99.90;;;;;;5105209;28;20097;-78
2022/11/18 04:58:18;;;;;;;4.10;0.60;;;9.30;99.90;;;;;;5082439;28;20537;-79
2022/11/18 05:00:43;;;;;;;1.17;0.38;;;9.30;99.90;;;;;;5108999;28;20411;-77
2022/11/18 05:03:09;;;;;;;1.60;0.40;;;9.30;99.90;;;;;;5106412;28;20392;-78
2022/11/18 05:05:34;;;;;;;2.00;0.50;;;9.30;99.90;;;;;;5110655;28;20031;-78
2022/11/18 05:08:00;;;;;;;2.05;0.28;;;9.30;99.90;;;;;;5106862;28;20081;-78
2022/11/18 05:10:26;;;;;;;0.57;0.30;;;9.30;99.90;;;;;;5103645;28;20024;-78
2022/11/18 05:12:51;;;;;;;3.22;0.73;;;9.30;99.90;;;;;;5081864;28;20036;-78
2022/11/18 05:15:24;;;;;;;1.50;0.50;;;9.30;99.90;;;;;;5105649;28;20480;-78
2022/11/18 05:17:50;;;;;;;3.00;0.60;;;9.20;99.90;;;;;;5100407;28;20460;-79
2022/11/18 05:20:16;;;;;;;2.28;0.50;;;9.20;99.90;;;;;;5103112;28;20904;-79
2022/11/18 05:22:41;;;;;;;5.18;0.70;;;9.20;99.90;;;;;;5103253;28;20488;-79
2022/11/18 05:25:08;;;;;;;0.75;0.30;;;9.20;99.90;;;;;;5103119;28;20024;-81
2022/11/18 05:27:33;;;;;;;3.45;0.82;;;9.20;99.90;;;;;;5080849;28;20074;-79
2022/11/18 05:29:59;;;;;;;1.70;0.32;;;9.20;99.90;;;;;;5102122;28;20032;-82
2022/11/18 05:32:25;;;;;;;1.55;0.47;;;9.20;99.90;;;;;;5102347;28;20045;-81
2022/11/18 05:34:50;;;;;;;1.77;0.40;;;9.20;99.90;;;;;;5099533;28;20021;-79
2022/11/18 05:37:16;;;;;;;6.22;0.50;;;9.20;99.90;;;;;;5105522;28;20557;-79
2022/11/18 05:39:42;;;;;;;1.25;0.30;;;9.20;99.90;;;;;;5080032;28;20102;-79
2022/11/18 05:44:53;;;;;;;0.52;0.22;;;9.20;99.90;;;;;;5102300;28;20039;-81
2022/11/18 05:47:18;;;;;;;1.80;0.40;;;9.10;99.90;;;;;;5082081;28;20480;-80
2022/11/18 05:49:44;;;;;;;4.35;0.60;;;9.10;99.90;;;;;;5084378;28;20048;-80
2022/11/18 05:52:10;;;;;;;2.33;0.60;;;9.10;99.90;;;;;;5106569;28;20036;-79
2022/11/18 05:54:41;;;;;;;4.03;0.52;;;9.10;99.90;;;;;;5099037;28;20050;-79
2022/11/18 05:57:06;;;;;;;1.15;0.32;;;9.10;99.90;;;;;;5080922;28;20028;-79
2022/11/18 05:59:32;;;;;;;3.45;0.60;;;9.10;99.90;;;;;;5102621;28;20058;-79
2022/11/18 06:02:03;;;;;;;2.35;0.45;;;9.10;99.90;;;;;;5101419;28;20028;-78
2022/11/18 06:04:41;;;;;;;1.30;0.40;;;9.10;99.90;;;;;;5104251;28;20020;-79
2022/11/18 06:07:21;;;;;;;2.47;0.65;;;9.10;99.90;;;;;;5101843;28;20020;-78
2022/11/18 06:09:50;;;;;;;4.28;0.70;;;9.10;99.90;;;;;;5106915;28;20020;-79
2022/11/18 06:12:21;;;;;;;3.13;0.55;;;9.10;99.90;;;;;;5098251;28;20031;-78
2022/11/18 06:14:51;;;;;;;1.73;0.40;;;9.10;99.90;;;;;;5100416;28;20523;-81
2022/11/18 06:17:22;;;;;;;4.00;0.73;;;9.10;99.90;;;;;;5079351;28;20032;-79
2022/11/18 06:19:48;;;;;;;1.85;0.63;;;9.10;99.90;;;;;;5097042;28;20107;-80
2022/11/18 06:22:14;;;;;;;2.67;0.60;;;9.10;99.90;;;;;;5098688;28;20059;-80
2022/11/18 06:24:41;;;;;;;3.47;0.60;;;9.10;99.90;;;;;;5098451;28;20050;-81
2022/11/18 06:27:07;;;;;;;2.22;0.70;;;9.10;99.90;;;;;;5099348;28;20020;-80
2022/11/18 06:29:33;;;;;;;2.25;0.30;;;9.10;99.90;;;;;;5098999;28;20020;-80
2022/11/18 06:31:59;;;;;;;2.63;0.60;;;9.10;99.90;;;;;;5079278;28;20365;-80
2022/11/18 06:34:25;;;;;;;1.73;0.45;;;9.10;99.90;;;;;;5069540;28;20019;-80
2022/11/18 06:36:50;;;;;;;1.00;0.30;;;9.10;99.90;;;;;;5088757;28;20020;-79
2022/11/18 06:39:16;;;;;;;3.10;0.90;;;9.10;99.90;;;;;;5078741;28;20019;-79
2022/11/18 06:41:41;;;;;;;2.15;0.50;;;9.10;99.90;;;;;;5103659;28;20028;-80
2022/11/18 06:44:09;;;;;;;4.43;0.82;;;9.10;99.90;;;;;;5118499;28;20031;-77
2022/11/18 06:49:19;;;;;;;2.42;0.52;;;9.10;99.90;;;;;;5118831;28;20139;-78
2022/11/18 06:51:45;;;;;;;2.50;0.70;;;9.10;99.90;;;;;;5094915;28;20063;-76
2022/11/18 06:54:10;;;;;;;2.15;0.40;;;9.00;99.90;;;;;;5114497;28;20024;-78
2022/11/18 06:56:36;;;;;;;4.30;0.90;;;9.10;99.90;;;;;;5080040;28;20024;-77
2022/11/18 06:59:02;;;;;;;4.95;0.80;;;9.10;99.90;;;;;;5080330;28;20077;-76
2022/11/18 07:01:30;;;;;;;1.52;0.45;;;9.00;99.90;;;;;;5097203;28;20028;-76
2022/11/18 07:03:58;;;;;;;1.38;0.70;;;9.00;99.90;;;;;;5114048;28;20098;-77
2022/11/18 07:06:27;;;;;;;1.90;0.45;;;9.00;99.90;;;;;;5118287;28;20020;-77
2022/11/18 07:08:53;;;;;;;2.70;0.50;;;9.00;99.90;;;;;;5118110;28;20096;-76
2022/11/18 07:11:21;;;;;;;0.40;0.40;;;9.00;99.90;;;;;;5103421;28;20034;-76
2022/11/18 07:13:47;;;;;;;4.47;0.77;;;9.00;99.90;;;;;;5105487;28;20133;-78
2022/11/18 07:16:24;;;;;;;4.38;0.80;;;9.00;99.90;;;;;;5097709;28;20070;-77
2022/11/18 07:18:51;;;;;;;2.92;0.70;;;8.90;99.90;;;;;;5100324;28;20044;-78
2022/11/18 07:21:20;;;;;;;2.75;0.57;;;8.90;99.90;;;;;;5104088;28;20412;-78
2022/11/18 07:23:46;;;;;;;4.10;0.80;;;8.90;99.90;;;;;;5107384;28;20024;-79
2022/11/18 07:26:12;;;;;;;2.63;0.70;;;8.90;99.90;;;;;;5114700;28;20031;-79
2022/11/18 07:28:38;;;;;;;2.80;0.80;;;8.80;99.90;;;;;;5118200;28;20538;-79
2022/11/18 07:31:09;;;;;;;2.47;0.70;;;8.80;99.90;;;;;;5099755;28;20027;-77
2022/11/18 07:33:36;;;;;;;3.28;0.60;;;8.80;99.90;;;;;;5095820;28;20085;-78
2022/11/18 07:36:06;;;;;;;1.73;0.55;;;8.80;99.90;;;;;;5094926;28;20043;-78
2022/11/18 07:38:32;;;;;;;2.85;0.80;;;8.80;99.90;;;;;;5071061;28;20029;-79
2022/11/18 07:41:12;;;;;;;1.67;0.47;;;8.80;99.90;;;;;;5096341;28;20059;-80
2022/11/18 07:43:39;;;;;;;2.25;0.82;;;8.80;99.90;;;;;;5108700;28;20361;-80
2022/11/18 07:46:18;;;;;;;3.05;0.63;;;8.80;99.90;;;;;;5117088;28;20027;-77
2022/11/18 07:48:45;;;;;;;1.23;0.47;;;8.80;99.90;;;;;;5095983;28;20056;-79
2022/11/18 07:51:13;;;;;;;0.93;0.40;;;8.90;99.90;;;;;;5080745;28;20059;-78
2022/11/18 07:53:39;;;;;;;1.95;0.55;;;8.90;99.90;;;;;;5096551;28;20031;-79
2022/11/18 07:56:05;;;;;;;3.35;0.90;;;8.90;99.90;;;;;;5097349;28;20031;-79
2022/11/18 07:58:31;;;;;;;1.63;0.52;;;8.90;99.90;;;;;;5079011;28;20024;-79
2022/11/18 08:00:57;;;;;;;2.50;0.60;;;8.90;99.90;;;;;;5116769;28;20042;-79
2022/11/18 08:03:26;;;;;;;3.40;0.85;;;8.90;99.90;;;;;;5117664;28;20024;-81
2022/11/18 08:05:53;;;;;;;2.42;0.82;;;8.90;99.90;;;;;;5117547;28;20036;-77
2022/11/18 08:08:19;;;;;;;1.90;0.75;;;8.90;99.90;;;;;;5102384;28;20063;-71
2022/11/18 08:10:44;;;;;;;4.30;1.15;;;9.00;99.90;;;;;;5096171;28;20049;-71
2022/11/18 08:13:10;;;;;;;3.22;0.70;;;9.00;99.90;;;;;;5103342;28;20019;-71
2022/11/18 08:15:42;;;;;;;4.05;1.30;;;9.00;99.90;;;;;;5087283;28;20028;-70
2022/11/18 08:18:08;;;;;;;1.85;0.60;;;9.00;99.90;;;;;;5095785;28;20028;-70
2022/11/18 08:20:34;;;;;;;2.75;0.77;;;9.10;99.90;;;;;;5109538;28;20050;-69
2022/11/18 08:23:00;;;;;;;2.47;0.57;;;9.10;99.90;;;;;;5112499;28;20082;-70
2022/11/18 08:25:25;;;;;;;2.03;0.60;;;9.10;99.90;;;;;;5078324;28;20032;-69
2022/11/18 08:27:51;;;;;;;3.63;0.68;;;9.10;99.90;;;;;;5096050;28;20032;-67
2022/11/18 08:30:17;;;;;;;3.78;0.77;;;9.20;99.90;;;;;;5079111;28;20535;-71
2022/11/18 08:32:43;;;;;;;4.72;0.82;;;9.20;99.90;;;;;;5096535;28;20075;-71
2022/11/18 08:35:08;;;;;;;1.40;0.70;;;9.20;99.90;;;;;;5078211;28;20382;-71
2022/11/18 08:37:34;;;;;;;4.80;0.77;;;9.20;99.90;;;;;;5096547;28;20048;-70
2022/11/18 08:40:00;;;;;;;3.75;1.02;;;9.30;99.90;;;;;;5101066;28;20024;-71
2022/11/18 08:42:25;;;;;;;5.60;0.90;;;9.30;99.90;;;;;;5106713;28;20391;-70
2022/11/18 08:44:51;;;;;;;4.10;0.90;;;9.30;99.90;;;;;;5113112;28;20031;-71
2022/11/18 08:47:17;;;;;;;2.88;0.80;;;9.30;99.90;;;;;;5098594;28;20039;-71
2022/11/18 08:49:42;;;;;;;2.72;0.77;;;9.30;99.90;;;;;;5099197;28;20036;-70
2022/11/18 08:52:09;;;;;;;4.35;0.98;;;9.30;99.90;;;;;;5089054;28;20029;-71
2022/11/18 08:54:35;;;;;;;3.17;0.60;;;9.30;99.90;;;;;;5104455;28;20031;-70
2022/11/18 08:57:00;;;;;;;5.72;1.38;;;9.30;99.90;;;;;;5116601;28;20023;-70
2022/11/18 08:59:26;;;;;;;3.17;0.90;;;9.40;99.90;;;;;;5098382;28;20035;-69
2022/11/18 09:01:52;;;;;;;2.40;0.55;;;9.40;99.90;;;;;;5099045;28;20392;-70
2022/11/18 09:04:18;;;;;;;5.20;1.10;;;9.40;99.90;;;;;;5101892;28;20032;-70
2022/11/18 09:06:43;;;;;;;4.45;0.90;;;9.50;99.90;;;;;;5115192;28;20039;-70
2022/11/18 09:09:09;;;;;;;3.35;0.77;;;9.50;99.90;;;;;;5118822;28;20028;-70
2022/11/18 09:11:38;;;;;;;2.42;0.50;;;9.50;99.90;;;;;;5115829;28;20020;-68
2022/11/18 09:14:03;;;;;;;3.55;0.73;;;9.60;99.90;;;;;;5104833;28;20027;-70
2022/11/18 09:16:31;;;;;;;3.90;1.20;;;9.60;99.90;;;;;;5118747;28;20039;-72
2022/11/18 09:18:57;;;;;;;3.05;1.00;;;9.60;99.90;;;;;;5094605;28;20028;-70
2022/11/18 09:21:24;;;;;;;2.67;0.70;;;9.70;99.90;;;;;;5101813;28;20496;-70
2022/11/18 09:23:49;;;;;;;2.28;0.82;;;9.70;99.90;;;;;;5070715;28;20032;-70
2022/11/18 09:26:19;;;;;;;2.13;0.80;;;9.70;99.90;;;;;;5104347;28;20043;-68
2022/11/18 09:28:45;;;;;;;2.53;0.90;;;9.70;99.90;;;;;;5084848;28;20119;-70
2022/11/18 09:31:16;;;;;;;3.65;0.98;;;9.70;99.90;;;;;;5099643;28;20051;-70
2022/11/18 09:33:42;;;;;;;4.75;0.68;;;9.80;99.90;;;;;;5099518;28;20036;-67
2022/11/18 09:36:13;;;;;;;5.93;1.00;;;9.80;99.90;;;;;;5112509;28;20035;-69
2022/11/18 09:38:38;;;;;;;3.53;0.73;;;9.80;99.90;;;;;;5102246;28;20024;-69
2022/11/18 09:41:29;;;;;;;3.45;0.70;;;9.90;99.90;;;;;;5072504;28;20024;-71
2022/11/18 09:44:24;;;;;;;2.45;0.88;;;9.90;99.90;;;;;;5087733;28;20066;-71
2022/11/18 09:47:23;;;;;;;1.90;0.85;;;10.00;99.90;;;;;;5090600;28;20020;-68
2022/11/18 09:49:50;;;;;;;3.75;1.00;;;10.10;99.90;;;;;;5104009;28;20131;-68
2022/11/18 09:52:21;;;;;;;4.63;0.85;;;10.10;99.90;;;;;;5099927;28;20021;-68
2022/11/18 09:54:46;;;;;;;4.32;1.15;;;10.20;99.90;;;;;;5116153;28;20050;-68
2022/11/18 09:57:15;;;;;;;4.53;1.15;;;10.20;99.90;;;;;;5119719;28;20019;-76
2022/11/18 09:59:42;;;;;;;7.00;1.17;;;10.30;99.90;;;;;;5119289;28;20430;-82
2022/11/18 10:02:28;;;;;;;3.08;0.80;;;10.50;99.90;;;;;;5119501;28;20477;-78
2022/11/18 10:05:14;;;;;;;3.95;0.80;;;10.70;99.90;;;;;;5067689;28;20114;-78
2022/11/18 10:07:46;;;;;;;3.13;1.00;;;10.70;99.90;;;;;;5118574;28;20415;-78
2022/11/18 10:10:20;;;;;;;4.93;1.08;;;10.70;99.90;;;;;;5119143;28;20400;-79
2022/11/18 10:12:57;;;;;;;4.57;0.82;;;10.80;99.90;;;;;;5119039;28;20037;-79
2022/11/18 10:15:29;;;;;;;8.25;1.13;;;10.80;99.90;;;;;;5118550;28;20115;-78
2022/11/18 10:18:16;;;;;;;2.60;0.90;;;10.80;99.90;;;;;;5119283;28;20123;-78
2022/11/18 10:20:55;;;;;;;6.05;1.05;;;10.90;99.90;;;;;;5118996;28;20434;-78
2022/11/18 10:23:30;;;;;;;5.70;0.93;;;10.90;99.90;;;;;;5118835;28;20483;-78
2022/11/18 10:25:57;;;;;;;6.03;1.30;;;11.00;99.90;;;;;;5119073;28;20024;-79
2022/11/18 10:28:28;;;;;;;6.10;1.08;;;11.00;99.90;;;;;;5118793;28;20022;-79
2022/11/18 10:31:02;;;;;;;8.65;1.05;;;11.00;99.90;;;;;;5118724;28;20105;-79
2022/11/18 10:33:28;;;;;;;3.80;0.80;;;11.10;99.90;;;;;;5100271;28;20552;-79
2022/11/18 10:36:08;;;;;;;8.13;1.33;;;11.20;99.90;;;;;;5110081;28;20028;-79
2022/11/18 10:38:34;;;;;;;5.90;0.93;;;11.10;99.90;;;;;;5102716;28;20038;-78
2022/11/18 10:41:05;;;;;;;6.57;1.25;;;11.10;99.90;;;;;;5100496;28;20106;-78
2022/11/18 10:43:52;;;;;;;5.90;0.98;;;11.10;99.90;;;;;;5100276;28;20030;-78
2022/11/18 10:46:26;;;;;;;3.78;1.00;;;11.20;99.90;;;;;;5118277;28;20038;-77
2022/11/18 10:49:15;;;;;;;3.22;0.82;;;11.20;99.90;;;;;;5111573;28;20048;-78
2022/11/18 10:51:44;;;;;;;3.38;0.73;;;11.20;99.90;;;;;;5094617;28;20024;-79
2022/11/18 10:54:15;;;;;;;5.38;1.30;;;11.30;99.90;;;;;;5095608;28;20030;-77
2022/11/18 10:56:56;;;;;;;4.13;1.00;;;11.30;99.90;;;;;;5074226;28;20036;-76
2022/11/18 10:59:28;;;;;;;5.32;0.90;;;11.30;99.90;;;;;;5074369;28;20054;-79
2022/11/18 11:02:13;;;;;;;5.18;0.98;;;11.30;99.90;;;;;;5075620;28;20038;-79
2022/11/18 11:04:40;;;;;;;3.20;0.80;;;11.30;99.90;;;;;;5095095;28;20020;-80
2022/11/18 11:07:24;;;;;;;5.18;1.05;;;11.40;99.90;;;;;;5095553;28;20120;-80
2022/11/18 11:10:16;;;;;;;3.65;0.70;;;11.30;99.90;;;;;;5095001;28;20016;-80
2022/11/18 11:12:55;;;;;;;3.78;0.60;;;11.40;99.90;;;;;;5077180;28;20059;-76
2022/11/18 11:15:40;;;;;;;5.68;1.23;;;11.40;99.90;;;;;;5095614;28;20038;-77
2022/11/18 11:18:40;;;;;;;4.65;0.90;;;11.40;99.90;;;;;;5077235;28;20024;-76
2022/11/18 11:21:18;;;;;;;3.78;0.90;;;11.40;99.70;;;;;;5079611;28;20027;-76
2022/11/18 11:23:45;;;;;;;5.05;1.40;;;11.40;99.90;;;;;;5105849;28;20028;-76
2022/11/18 11:26:33;;;;;;;3.90;1.10;;;11.40;99.90;;;;;;5098851;28;20022;-76
2022/11/18 11:29:12;;;;;;;2.97;0.95;;;11.50;99.90;;;;;;5118190;28;20053;-76
2022/11/18 11:32:18;;;;;;;4.05;1.10;;;11.50;99.90;;;;;;5118004;28;20077;-77
2022/11/18 11:34:46;;;;;;;3.20;1.10;;;11.50;99.90;;;;;;5117858;28;20028;-76
2022/11/18 11:37:38;;;;;;;4.97;1.10;;;11.50;99.90;;;;;;5099927;28;20498;-76
2022/11/18 11:40:36;;;;;;;4.05;1.05;;;11.50;99.40;;;;;;5060674;28;20039;-77
2022/11/18 11:43:05;;;;;;;3.83;0.90;;;11.50;99.50;;;;;;5008059;28;20042;-76
2022/11/18 11:45:38;;;;;;;3.30;1.00;;;11.50;99.60;;;;;;5097422;28;20024;-78
2022/11/18 11:48:04;;;;;;;4.82;0.88;;;11.50;99.90;;;;;;5097791;28;20024;-77
2022/11/18 11:50:52;;;;;;;2.05;0.80;;;11.60;99.90;;;;;;5099007;28;20108;-77
2022/11/18 11:53:27;;;;;;;8.15;0.88;;;11.60;99.90;;;;;;5100284;28;20071;-73
2022/11/18 11:56:14;;;;;;;2.80;1.10;;;11.60;99.90;;;;;;5117335;28;20026;-76
2022/11/18 11:59:12;;;;;;;5.57;1.08;;;11.60;99.90;;;;;;5099455;28;20027;-76
2022/11/18 12:01:43;;;;;;;5.18;0.88;;;11.70;99.90;;;;;;5117433;28;20361;-76
2022/11/18 12:04:17;;;;;;;2.70;0.80;;;11.70;99.90;;;;;;5117641;28;20034;-74
2022/11/18 12:06:50;;;;;;;4.65;0.90;;;11.70;99.90;;;;;;5117226;28;20496;-73
2022/11/18 12:09:51;;;;;;;2.97;0.80;;;11.80;99.20;;;;;;5117066;28;20026;-73
2022/11/18 12:12:41;;;;;;;6.30;1.13;;;11.70;99.90;;;;;;5117621;28;20349;-75
2022/11/18 12:15:28;;;;;;;4.38;0.95;;;11.80;99.90;;;;;;5117271;28;20057;-74
2022/11/18 12:18:07;;;;;;;4.45;0.88;;;11.80;99.90;;;;;;5098935;28;20498;-74
2022/11/18 12:20:42;;;;;;;3.40;0.80;;;11.90;99.90;;;;;;5099184;28;20553;-73
2022/11/18 12:23:17;;;;;;;3.70;0.90;;;11.90;99.70;;;;;;5098739;28;20030;-74
2022/11/18 12:25:56;;;;;;;4.82;0.90;;;11.90;99.20;;;;;;5117532;28;20028;-73
2022/11/18 12:28:22;;;;;;;3.25;0.85;;;11.90;99.70;;;;;;5117539;28;20526;-76
2022/11/18 12:30:48;;;;;;;5.38;1.00;;;11.90;98.90;;;;;;5098884;28;20059;-77
2022/11/18 12:33:15;;;;;;;4.40;0.80;;;12.00;99.40;;;;;;5117473;28;20027;-74
2022/11/18 12:35:49;;;;;;;3.88;0.90;;;12.00;98.70;;;;;;5117191;28;20028;-75
2022/11/18 12:38:30;;;;;;;3.70;0.90;;;12.10;99.60;;;;;;5115959;28;20024;-75
2022/11/18 12:40:55;;;;;;;2.72;0.80;;;12.20;99.90;;;;;;5100871;28;20441;-75
2022/11/18 12:46:09;;;;;;;2.30;0.80;;;12.50;99.20;;;;;;5094173;28;20075;-81
2022/11/18 12:48:41;;;;;;;5.63;1.42;;;12.50;98.10;;;;;;5078881;28;20477;-81
2022/11/18 12:51:38;;;;;;;3.13;0.75;;;12.50;99.90;;;;;;5100337;28;20146;-82
2022/11/18 12:54:36;;;;;;;4.18;1.17;;;12.60;99.20;;;;;;5099841;28;20454;-79
2022/11/18 12:57:25;;;;;;;4.45;0.70;;;12.60;97.90;;;;;;5111769;28;20035;-80
2022/11/18 12:59:51;;;;;;;4.53;0.85;;;12.50;97.50;;;;;;5071006;28;20050;-79
2022/11/18 13:02:25;;;;;;;2.67;0.60;;;12.40;96.90;;;;;;5105761;28;20012;-78
2022/11/18 13:05:17;;;;;;;4.38;0.93;;;12.30;96.90;;;;;;5078549;28;20023;-78
2022/11/18 13:10:32;;;;;;;4.60;0.90;;;12.20;96.30;;;;;;5100357;28;20031;-76
2022/11/18 13:12:59;;;;;;;4.20;0.70;;;12.10;97.10;;;;;;5081628;28;20111;-75
2022/11/18 13:18:18;;;;;;;7.82;1.15;;;12.10;97.10;;;;;;5102788;28;20042;-74
2022/11/18 13:23:50;;;;;;;3.03;0.70;;;12.10;98.50;;;;;;5102030;28;20536;-75
2022/11/18 13:23:53;;;;;;;6.05;1.10;;;12.10;97.30;;;;;;5106413;28;20028;-74
2022/11/18 13:26:26;;;;;;;3.13;0.80;;;12.10;97.90;;;;;;5115968;28;20028;-74
2022/11/18 13:29:16;;;;;;;2.45;0.68;;;12.00;97.60;;;;;;5119972;28;20022;-74
2022/11/18 13:31:50;;;;;;;5.20;0.98;;;12.10;97.40;;;;;;5086919;28;20059;-74
2022/11/18 13:34:21;;;;;;;3.40;0.82;;;12.10;96.60;;;;;;5083183;28;20027;-75
2022/11/18 13:36:49;;;;;;;3.42;0.80;;;12.10;97.90;;;;;;5090189;28;20499;-75